createdAt,value
2022-11-29T00:00:18.877Z,3.600000
2022-11-29T00:05:21.984Z,3.600000
2022-11-29T00:10:25.806Z,3.677778
2022-11-29T00:15:29.680Z,3.700000
2022-11-29T00:20:19.468Z,3.700000
2022-11-29T00:25:22.682Z,3.760000
2022-11-29T00:30:25.894Z,3.800000
2022-11-29T00:35:29.970Z,3.800000
2022-11-29T00:40:20.069Z,3.800000
2022-11-29T00:45:23.055Z,3.800000
2022-11-29T00:50:26.265Z,3.800000
2022-11-29T00:55:30.020Z,3.800000
2022-11-29T01:00:20.578Z,3.800000
2022-11-29T01:05:23.476Z,3.800000
2022-11-29T01:10:26.666Z,3.850000
2022-11-29T01:15:29.952Z,3.900000
2022-11-29T01:20:20.867Z,3.900000
2022-11-29T01:25:24.181Z,3.900000
2022-11-29T01:30:27.271Z,3.900000
2022-11-29T01:35:30.249Z,3.900000
2022-11-29T01:40:21.331Z,3.900000
2022-11-29T01:45:24.587Z,3.900000
2022-11-29T01:50:30.505Z,3.922222
2022-11-29T01:55:30.852Z,4.000000
2022-11-29T02:00:22.508Z,4.000000
2022-11-29T02:05:25.020Z,4.000000
2022-11-29T02:10:30.460Z,4.000000
2022-11-29T02:15:19.190Z,4.000000
2022-11-29T02:20:22.247Z,4.000000
2022-11-29T02:25:25.816Z,4.000000
2022-11-29T02:30:30.625Z,4.000000
2022-11-29T02:35:19.982Z,4.000000
2022-11-29T02:40:18.944Z,4.000000
2022-11-29T02:45:18.953Z,4.000000
2022-11-29T02:50:19.053Z,3.900000
2022-11-29T02:55:20.323Z,3.900000
2022-11-29T03:00:18.992Z,3.800000
2022-11-29T03:05:26.532Z,3.800000
2022-11-29T03:10:18.954Z,3.800000
2022-11-29T03:15:20.745Z,3.800000
2022-11-29T03:20:23.999Z,3.800000
2022-11-29T03:25:27.491Z,3.800000
2022-11-29T03:30:19.006Z,3.800000
2022-11-29T03:35:21.555Z,3.800000
2022-11-29T03:40:19.424Z,3.800000
2022-11-29T03:45:19.516Z,3.800000
2022-11-29T03:50:18.821Z,3.800000
2022-11-29T03:55:22.769Z,3.800000
2022-11-29T04:00:19.372Z,3.800000
2022-11-29T04:05:28.245Z,3.800000
2022-11-29T04:10:19.425Z,3.800000
2022-11-29T04:15:22.422Z,3.800000
2022-11-29T04:20:19.651Z,3.800000
2022-11-29T04:25:19.542Z,3.800000
2022-11-29T04:30:20.179Z,3.800000
2022-11-29T04:35:23.330Z,3.866667
2022-11-29T04:40:19.978Z,3.900000
2022-11-29T04:45:19.927Z,3.900000
2022-11-29T04:50:20.671Z,3.910000
2022-11-29T04:55:27.658Z,4.000000
2022-11-29T05:00:19.934Z,4.000000
2022-11-29T05:05:19.944Z,4.000000
2022-11-29T05:10:21.008Z,4.050000
2022-11-29T05:15:19.999Z,4.100000
2022-11-29T05:20:19.942Z,4.162500
2022-11-29T05:25:32.178Z,4.200000
2022-11-29T05:30:21.563Z,4.200000
2022-11-29T05:35:20.351Z,4.200000
2022-11-29T05:40:20.362Z,4.300000
2022-11-29T05:45:20.676Z,4.322222
2022-11-29T05:50:22.102Z,4.400000
2022-11-29T05:55:25.167Z,4.400000
2022-11-29T06:00:20.452Z,4.400000
2022-11-29T06:05:20.619Z,4.400000
2022-11-29T06:10:22.428Z,4.400000
2022-11-29T06:15:20.388Z,4.500000
2022-11-29T06:20:20.362Z,4.500000
2022-11-29T06:25:20.461Z,4.500000
2022-11-29T06:30:23.379Z,4.500000
2022-11-29T06:35:26.465Z,4.500000
2022-11-29T06:40:20.842Z,4.500000
2022-11-29T06:45:20.917Z,4.500000
2022-11-29T06:50:23.924Z,4.500000
2022-11-29T06:55:21.717Z,4.500000
2022-11-29T07:00:20.851Z,4.500000
2022-11-29T07:05:21.106Z,4.541667
2022-11-29T07:10:20.845Z,4.600000
2022-11-29T07:15:20.974Z,4.600000
2022-11-29T07:20:33.359Z,4.633333
2022-11-29T07:25:21.723Z,4.700000
2022-11-29T07:30:20.950Z,4.763636
2022-11-29T07:35:28.008Z,4.887500
2022-11-29T07:40:22.055Z,4.988889
2022-11-29T07:45:22.055Z,5.000000
2022-11-29T07:50:21.291Z,5.080000
2022-11-29T07:55:21.284Z,5.100000
2022-11-29T08:00:19.499Z,5.100000
2022-11-29T08:05:22.580Z,5.170000
2022-11-29T08:10:21.393Z,5.200000
2022-11-29T08:15:21.370Z,5.223077
2022-11-29T08:20:21.399Z,5.300000
2022-11-29T08:25:23.251Z,5.400000
2022-11-29T08:30:21.553Z,5.450000
2022-11-29T08:35:21.764Z,5.500000
2022-11-29T08:40:21.752Z,5.500000
2022-11-29T08:45:23.780Z,5.500000
2022-11-29T08:50:22.687Z,5.500000
2022-11-29T08:55:21.856Z,5.500000
2022-11-29T09:00:21.861Z,5.500000
2022-11-29T09:05:24.080Z,5.500000
2022-11-29T09:10:27.147Z,5.500000
2022-11-29T09:15:21.788Z,5.500000
2022-11-29T09:20:21.878Z,5.571429
2022-11-29T09:25:24.537Z,5.600000
2022-11-29T09:30:23.908Z,5.600000
2022-11-29T09:35:30.807Z,5.600000
2022-11-29T09:40:22.281Z,5.662500
2022-11-29T09:45:24.840Z,5.700000
2022-11-29T09:50:22.462Z,5.700000
2022-11-29T09:55:18.984Z,5.700000
2022-11-29T10:00:22.214Z,5.800000
2022-11-29T10:05:25.360Z,5.863636
2022-11-29T10:10:22.269Z,5.950000
2022-11-29T10:15:22.530Z,6.050000
2022-11-29T10:20:22.573Z,6.100000
2022-11-29T10:25:25.801Z,6.100000
2022-11-29T10:30:22.353Z,6.166667
2022-11-29T10:35:22.802Z,6.230000
2022-11-29T10:40:23.212Z,6.300000
2022-11-29T10:45:22.795Z,6.300000
2022-11-29T10:50:22.813Z,6.400000
2022-11-29T10:55:22.744Z,6.446154
2022-11-29T11:00:23.532Z,6.560000
2022-11-29T11:05:26.725Z,6.670000
2022-11-29T11:10:22.812Z,6.787500
2022-11-29T11:15:20.807Z,6.830000
2022-11-29T11:20:23.972Z,6.900000
2022-11-29T11:25:22.719Z,6.900000
2022-11-29T11:30:30.354Z,6.944444
2022-11-29T11:35:23.153Z,7.000000
2022-11-29T11:40:25.190Z,7.000000
2022-11-29T11:45:27.647Z,7.000000
2022-11-29T11:50:23.246Z,7.000000
2022-11-29T11:55:23.209Z,7.033333
2022-11-29T12:00:47.635Z,7.125000
2022-11-29T12:05:23.292Z,7.236364
2022-11-29T12:10:19.181Z,7.370000
2022-11-29T12:15:23.209Z,7.510000
2022-11-29T12:20:25.337Z,7.666667
2022-11-29T12:25:23.288Z,7.850000
2022-11-29T12:30:19.576Z,7.980000
2022-11-29T12:35:24.643Z,8.084615
2022-11-29T12:40:25.923Z,8.200000
2022-11-29T12:45:23.684Z,8.263636
2022-11-29T12:50:20.019Z,8.366667
2022-11-29T12:55:23.785Z,8.466667
2022-11-29T13:00:26.289Z,8.577778
2022-11-29T13:05:23.707Z,8.654545
2022-11-29T13:10:20.348Z,8.742857
2022-11-29T13:15:23.675Z,8.800000
2022-11-29T13:20:26.671Z,8.800000
2022-11-29T13:25:23.728Z,8.827273
2022-11-29T13:30:21.182Z,8.900000
2022-11-29T13:35:24.870Z,8.908333
2022-11-29T13:40:24.292Z,9.000000
2022-11-29T13:45:30.699Z,9.000000
2022-11-29T13:50:24.079Z,8.920000
2022-11-29T13:55:24.782Z,8.900000
2022-11-29T14:00:24.119Z,8.900000
2022-11-29T14:05:18.867Z,8.900000
2022-11-29T14:10:29.228Z,8.850000
2022-11-29T14:15:25.080Z,8.800000
2022-11-29T14:20:24.095Z,8.763636
2022-11-29T14:25:43.343Z,8.700000
2022-11-29T14:30:24.310Z,8.700000
2022-11-29T14:35:25.983Z,8.700000
2022-11-29T14:40:24.722Z,8.700000
2022-11-29T14:45:20.116Z,8.700000
2022-11-29T14:50:24.685Z,8.627273
2022-11-29T14:55:26.592Z,8.600000
2022-11-29T15:00:24.700Z,8.580000
2022-11-29T15:05:20.411Z,8.500000
2022-11-29T15:10:24.605Z,8.500000
2022-11-29T15:15:26.842Z,8.477778
2022-11-29T15:20:30.266Z,8.400000
2022-11-29T15:25:21.203Z,8.400000
2022-11-29T15:30:24.622Z,8.436364
2022-11-29T15:35:27.694Z,8.516667
2022-11-29T15:40:25.087Z,8.616667
2022-11-29T15:45:21.469Z,8.700000
2022-11-29T15:50:25.169Z,8.770000
2022-11-29T15:55:27.873Z,8.800000
2022-11-29T16:00:30.951Z,8.800000
2022-11-29T16:05:21.992Z,8.800000
2022-11-29T16:10:37.174Z,8.820000
2022-11-29T16:15:28.292Z,8.900000
2022-11-29T16:20:19.312Z,8.900000
2022-11-29T16:25:25.055Z,8.900000
2022-11-29T16:30:25.817Z,9.000000
2022-11-29T16:35:25.432Z,8.955556
2022-11-29T16:40:19.991Z,8.900000
2022-11-29T16:45:23.166Z,8.900000
2022-11-29T16:50:26.217Z,8.900000
2022-11-29T16:55:25.512Z,8.900000
2022-11-29T17:00:20.403Z,8.900000
2022-11-29T17:05:25.572Z,8.900000
2022-11-29T17:10:27.146Z,8.900000
2022-11-29T17:15:25.586Z,8.872727
2022-11-29T17:20:20.715Z,8.800000
2022-11-29T17:25:25.555Z,8.800000
2022-11-29T17:30:27.584Z,8.733333
2022-11-29T17:35:30.714Z,8.700000
2022-11-29T17:40:21.620Z,8.688889
2022-11-29T17:45:24.710Z,8.600000
2022-11-29T17:50:27.955Z,8.485714
2022-11-29T17:55:20.781Z,8.375000
2022-11-29T18:00:21.976Z,8.300000
2022-11-29T18:05:27.921Z,8.236364
2022-11-29T18:10:28.316Z,8.200000
2022-11-29T18:15:19.477Z,8.100000
2022-11-29T18:20:22.483Z,8.045455
2022-11-29T18:25:39.882Z,7.990000
2022-11-29T18:30:25.935Z,7.855556
2022-11-29T18:35:20.135Z,7.658333
2022-11-29T18:40:23.382Z,7.427273
2022-11-29T18:45:26.387Z,7.254545
2022-11-29T18:50:26.350Z,7.080000
2022-11-29T18:55:20.497Z,6.954545
2022-11-29T19:00:26.458Z,6.833333
2022-11-29T19:05:26.946Z,6.691667
2022-11-29T19:10:26.436Z,6.566667
2022-11-29T19:15:21.018Z,6.491667
2022-11-29T19:20:26.402Z,6.400000
2022-11-29T19:25:28.184Z,6.300000
2022-11-29T19:30:26.552Z,6.200000
2022-11-29T19:35:21.421Z,6.175000
2022-11-29T19:40:26.891Z,6.100000
2022-11-29T19:45:27.789Z,6.100000
2022-11-29T19:50:26.922Z,6.100000
2022-11-29T19:55:21.892Z,6.100000
2022-11-29T20:00:25.032Z,6.008333
2022-11-29T20:05:28.062Z,5.940000
2022-11-29T20:10:19.167Z,5.863636
2022-11-29T20:15:22.446Z,5.800000
2022-11-29T20:20:27.026Z,5.700000
2022-11-29T20:25:29.615Z,5.654545
2022-11-29T20:30:19.880Z,5.600000
2022-11-29T20:35:23.134Z,5.553846
2022-11-29T20:40:27.118Z,5.500000
2022-11-29T20:45:29.281Z,5.500000
2022-11-29T20:50:23.135Z,5.500000
2022-11-29T20:55:23.481Z,5.463636
2022-11-29T21:00:26.620Z,5.400000
2022-11-29T21:05:30.111Z,5.400000
2022-11-29T21:10:20.714Z,5.400000
2022-11-29T21:15:23.882Z,5.400000
2022-11-29T21:20:27.075Z,5.377778
2022-11-29T21:25:27.190Z,5.300000
2022-11-29T21:30:21.334Z,5.300000
2022-11-29T21:35:24.537Z,5.300000
2022-11-29T21:40:39.884Z,5.300000
2022-11-29T21:45:27.696Z,5.300000
2022-11-29T21:50:21.778Z,5.300000
2022-11-29T21:55:31.575Z,5.216667
2022-11-29T22:00:30.089Z,5.200000
2022-11-29T22:05:19.230Z,5.200000
2022-11-29T22:10:22.238Z,5.177778
2022-11-29T22:15:28.116Z,5.100000
2022-11-29T22:20:28.629Z,5.100000
2022-11-29T22:25:19.837Z,5.100000
2022-11-29T22:30:23.175Z,5.100000
2022-11-29T22:35:28.076Z,5.100000
2022-11-29T22:40:29.264Z,5.100000
2022-11-29T22:45:20.334Z,5.061538
2022-11-29T22:50:23.537Z,5.000000
2022-11-29T22:55:28.036Z,5.000000
2022-11-29T23:00:29.801Z,5.000000
2022-11-29T23:05:20.663Z,4.972727
2022-11-29T23:10:23.866Z,4.900000
2022-11-29T23:15:28.249Z,4.883333
2022-11-29T23:20:30.192Z,4.800000
2022-11-29T23:25:21.691Z,4.800000
2022-11-29T23:30:24.749Z,4.733333
2022-11-29T23:35:28.747Z,4.700000
2022-11-29T23:40:18.982Z,4.700000
2022-11-29T23:45:22.111Z,4.692308
2022-11-29T23:50:25.199Z,4.600000
2022-11-29T23:55:28.584Z,4.600000
